Time;durP1;ratioP1;P1;durP2;ratioP2;P2;SDS_P1;SDS_P2;PMS_P1;PMS_P2;Temp;Humidity;BMP_temperature;BMP_pressure;BME280_temperature;BME280_humidity;BME280_pressure;Samples;Min_cycle;Max_cycle;Signal;HPM_P1;HPM_P2
2022/08/07 00:00:04;;;;;;;1.00;1.00;;;12.80;6.30;;;;;;5088838;28;34360;-77
2022/08/07 00:02:30;;;;;;;1.33;1.23;;;12.80;6.50;;;;;;5089989;28;35809;-77
2022/08/07 00:04:56;;;;;;;0.98;0.90;;;12.80;6.50;;;;;;5108870;28;34122;-77
2022/08/07 00:07:22;;;;;;;3.08;1.20;;;12.70;6.50;;;;;;5070436;28;34235;-77
2022/08/07 00:09:48;;;;;;;0.98;0.90;;;12.70;6.50;;;;;;5065365;28;34323;-77
2022/08/07 00:12:14;;;;;;;1.08;0.98;;;12.70;6.80;;;;;;5098133;27;34203;-77
2022/08/07 00:14:40;;;;;;;1.60;1.17;;;12.60;6.70;;;;;;5067218;28;34261;-77
2022/08/07 00:17:06;;;;;;;1.65;1.20;;;12.60;6.80;;;;;;5089394;27;34378;-77
2022/08/07 00:19:32;;;;;;;1.05;1.02;;;12.60;7.00;;;;;;5106981;27;34228;-77
2022/08/07 00:21:58;;;;;;;1.75;1.00;;;12.50;7.20;;;;;;5071706;28;35639;-77
2022/08/07 00:24:24;;;;;;;3.83;1.13;;;12.40;7.30;;;;;;5086504;28;34147;-77
2022/08/07 00:26:51;;;;;;;1.00;0.90;;;12.40;7.40;;;;;;5103833;27;34004;-77
2022/08/07 00:29:18;;;;;;;1.13;1.02;;;12.30;7.50;;;;;;5090896;27;34083;-76
2022/08/07 00:31:44;;;;;;;0.88;0.88;;;12.30;7.60;;;;;;5094338;28;35698;-77
2022/08/07 00:34:10;;;;;;;1.00;1.00;;;12.20;7.60;;;;;;5089821;28;34104;-77
2022/08/07 00:36:37;;;;;;;1.42;1.00;;;12.20;7.70;;;;;;5106955;27;34375;-77
2022/08/07 00:39:03;;;;;;;0.85;0.85;;;12.10;7.70;;;;;;5107704;27;34054;-77
2022/08/07 00:41:32;;;;;;;1.55;0.80;;;12.10;7.80;;;;;;5092908;28;35612;-78
2022/08/07 00:43:58;;;;;;;0.93;0.90;;;12.00;8.20;;;;;;5088588;27;34229;-77
2022/08/07 00:46:25;;;;;;;1.00;0.90;;;12.00;7.80;;;;;;5127093;27;34229;-77
2022/08/07 00:48:51;;;;;;;0.93;0.93;;;12.00;8.10;;;;;;5106806;27;34156;-77
2022/08/07 00:51:17;;;;;;;1.25;0.98;;;11.90;8.20;;;;;;5135203;27;34992;-77
2022/08/07 00:53:44;;;;;;;0.73;0.73;;;11.90;8.20;;;;;;5106428;27;34371;-77
2022/08/07 00:56:11;;;;;;;1.88;0.85;;;11.80;8.40;;;;;;5118394;27;34181;-77
2022/08/07 00:58:41;;;;;;;1.00;0.85;;;11.80;8.50;;;;;;5125414;27;34168;-77
2022/08/07 01:01:07;;;;;;;1.00;0.90;;;11.80;9.50;;;;;;5124696;27;34332;-77
2022/08/07 01:03:33;;;;;;;0.90;0.90;;;11.70;8.70;;;;;;5106300;27;34322;-77
2022/08/07 01:06:00;;;;;;;1.00;0.80;;;11.70;8.70;;;;;;5124618;27;34126;-77
2022/08/07 01:08:26;;;;;;;3.40;1.10;;;11.70;8.90;;;;;;5124735;27;34077;-77
2022/08/07 01:10:52;;;;;;;1.00;0.90;;;11.60;8.60;;;;;;5089999;27;36096;-77
2022/08/07 01:13:19;;;;;;;0.80;0.80;;;11.60;8.90;;;;;;5107542;27;34234;-77
2022/08/07 01:15:46;;;;;;;1.15;0.98;;;11.60;9.60;;;;;;5139637;27;34299;-77
2022/08/07 01:18:13;;;;;;;0.90;0.90;;;11.50;9.30;;;;;;5115567;27;34456;-77
2022/08/07 01:20:46;;;;;;;0.80;0.80;;;11.50;9.20;;;;;;5104177;27;35625;-77
2022/08/07 01:23:12;;;;;;;1.15;1.05;;;11.40;10.50;;;;;;5114002;27;34164;-77
2022/08/07 01:25:39;;;;;;;1.20;1.10;;;11.40;9.40;;;;;;5106252;27;34349;-77
2022/08/07 01:28:05;;;;;;;0.75;0.75;;;11.30;10.10;;;;;;5090887;28;34049;-77
2022/08/07 01:30:32;;;;;;;1.25;1.00;;;11.30;9.70;;;;;;5107794;28;34749;-77
2022/08/07 01:32:58;;;;;;;1.20;1.00;;;11.20;9.70;;;;;;5094222;27;34077;-77
2022/08/07 01:35:24;;;;;;;0.90;0.90;;;11.20;9.80;;;;;;5127891;27;34217;-77
2022/08/07 01:37:51;;;;;;;1.08;0.85;;;11.10;9.80;;;;;;5128736;27;34181;-77
2022/08/07 01:40:20;;;;;;;1.77;0.98;;;11.10;9.80;;;;;;5128596;27;35183;-77
2022/08/07 01:42:47;;;;;;;1.10;0.80;;;11.10;10.30;;;;;;5136154;27;34267;-77
2022/08/07 01:45:13;;;;;;;0.95;0.95;;;11.00;10.00;;;;;;5109220;27;34197;-77
2022/08/07 01:47:39;;;;;;;1.10;0.98;;;11.00;10.20;;;;;;5128091;27;34473;-77
2022/08/07 01:50:05;;;;;;;1.58;0.70;;;11.00;10.10;;;;;;5109204;27;35514;-77
2022/08/07 01:52:34;;;;;;;0.80;0.80;;;11.00;10.30;;;;;;5128251;27;34580;-77
2022/08/07 01:55:01;;;;;;;1.45;1.00;;;10.90;10.50;;;;;;5092667;27;34310;-77
2022/08/07 01:57:33;;;;;;;1.23;1.13;;;10.90;10.80;;;;;;5128071;27;34150;-77
2022/08/07 02:00:10;;;;;;;1.23;1.13;;;10.80;10.60;;;;;;5108997;27;35651;-77
2022/08/07 02:02:54;;;;;;;0.90;0.90;;;10.80;12.50;;;;;;5108900;27;34386;-77
2022/08/07 02:05:26;;;;;;;0.95;0.90;;;10.80;14.00;;;;;;5108939;27;34029;-77
2022/08/07 02:07:55;;;;;;;0.80;0.80;;;10.70;11.60;;;;;;5089000;28;34170;-77
2022/08/07 02:10:24;;;;;;;1.10;1.00;;;10.70;11.30;;;;;;5113006;27;36249;-77
2022/08/07 02:12:52;;;;;;;1.80;1.00;;;10.60;11.10;;;;;;5128655;27;34138;-77
2022/08/07 02:15:23;;;;;;;1.38;1.00;;;10.60;11.00;;;;;;5112542;27;34337;-77
2022/08/07 02:17:51;;;;;;;0.75;0.75;;;10.60;11.30;;;;;;5129593;27;34224;-78
2022/08/07 02:20:19;;;;;;;2.38;0.90;;;10.60;11.10;;;;;;5107912;27;36535;-77
2022/08/07 02:22:45;;;;;;;1.48;1.10;;;10.50;11.20;;;;;;5108645;27;34198;-77
2022/08/07 02:25:14;;;;;;;1.20;0.90;;;10.50;11.10;;;;;;5092887;28;34049;-77
2022/08/07 02:27:41;;;;;;;1.13;1.05;;;10.50;11.50;;;;;;5105214;28;34121;-77
2022/08/07 02:30:08;;;;;;;0.70;0.70;;;10.50;11.20;;;;;;5122091;27;36437;-77
2022/08/07 02:32:36;;;;;;;1.13;0.90;;;10.40;11.20;;;;;;5108576;27;34131;-77
2022/08/07 02:35:03;;;;;;;0.95;0.90;;;10.40;11.20;;;;;;5112905;27;34295;-77
2022/08/07 02:37:32;;;;;;;1.10;1.00;;;10.40;11.50;;;;;;5129936;27;34407;-77
2022/08/07 02:40:00;;;;;;;0.80;0.80;;;10.40;11.40;;;;;;5127982;27;35593;-77
2022/08/07 02:42:28;;;;;;;1.75;0.80;;;10.40;11.60;;;;;;5112193;27;34067;-77
2022/08/07 02:44:56;;;;;;;0.93;0.93;;;10.40;11.60;;;;;;5109633;27;34193;-77
2022/08/07 02:47:22;;;;;;;0.80;0.80;;;10.30;11.80;;;;;;5108605;27;34084;-77
2022/08/07 02:49:48;;;;;;;0.85;0.85;;;10.30;11.60;;;;;;5128896;27;34367;-77
2022/08/07 02:52:22;;;;;;;0.90;0.88;;;10.30;11.80;;;;;;5108562;27;34513;-77
2022/08/07 02:54:49;;;;;;;0.80;0.80;;;10.30;12.40;;;;;;5108850;27;34195;-77
2022/08/07 02:57:18;;;;;;;0.90;0.90;;;10.20;11.80;;;;;;5102597;27;34408;-77
2022/08/07 02:59:49;;;;;;;1.90;0.90;;;10.20;11.90;;;;;;5104990;27;35912;-77
2022/08/07 03:02:15;;;;;;;0.68;0.68;;;10.20;12.00;;;;;;5088555;28;34046;-77
2022/08/07 03:04:45;;;;;;;1.23;0.90;;;10.20;11.80;;;;;;5121681;27;34135;-77
2022/08/07 03:07:12;;;;;;;0.68;0.68;;;10.10;12.00;;;;;;5105223;27;34079;-77
2022/08/07 03:09:39;;;;;;;0.90;0.90;;;10.10;11.90;;;;;;5112158;27;36101;-77
2022/08/07 03:12:07;;;;;;;0.80;0.80;;;10.10;11.90;;;;;;5138581;27;34145;-77
2022/08/07 03:14:35;;;;;;;1.38;0.73;;;10.10;12.10;;;;;;5099826;28;34163;-77
2022/08/07 03:17:03;;;;;;;1.85;0.80;;;10.10;12.10;;;;;;5090771;27;34086;-77
2022/08/07 03:19:30;;;;;;;1.35;1.00;;;10.00;12.00;;;;;;5107242;27;36434;-77
2022/08/07 03:21:57;;;;;;;0.80;0.80;;;10.00;12.10;;;;;;5107936;27;34206;-77
2022/08/07 03:24:23;;;;;;;1.10;1.00;;;10.00;12.20;;;;;;5091137;27;34192;-77
2022/08/07 03:26:51;;;;;;;0.73;0.73;;;10.00;12.10;;;;;;5107798;27;34415;-77
2022/08/07 03:29:19;;;;;;;0.85;0.85;;;9.90;12.50;;;;;;5108019;27;35705;-77
2022/08/07 03:31:46;;;;;;;0.77;0.70;;;9.90;12.40;;;;;;5099803;27;34071;-77
2022/08/07 03:34:16;;;;;;;0.80;0.80;;;9.90;12.60;;;;;;5108523;27;34225;-77
2022/08/07 03:36:44;;;;;;;1.02;1.00;;;9.80;12.70;;;;;;5109372;27;33874;-77
2022/08/07 03:39:12;;;;;;;1.10;1.00;;;9.80;12.50;;;;;;5113883;27;35880;-77
2022/08/07 03:41:39;;;;;;;0.93;0.93;;;9.80;12.70;;;;;;5090512;27;34234;-77
2022/08/07 03:44:06;;;;;;;3.13;0.90;;;9.80;12.60;;;;;;5094331;27;34298;-77
2022/08/07 03:46:32;;;;;;;0.88;0.65;;;9.70;12.50;;;;;;5126862;27;34305;-78
2022/08/07 03:48:59;;;;;;;1.30;0.95;;;9.70;12.70;;;;;;5107782;27;35731;-77
2022/08/07 03:51:27;;;;;;;0.90;0.85;;;9.70;12.70;;;;;;5107592;27;34195;-77
2022/08/07 03:53:53;;;;;;;0.80;0.80;;;9.70;12.80;;;;;;5126422;27;34050;-77
2022/08/07 03:56:22;;;;;;;0.73;0.73;;;9.70;12.80;;;;;;5108729;27;34123;-77
2022/08/07 03:58:49;;;;;;;1.05;1.05;;;9.60;12.90;;;;;;5103609;28;35958;-77
2022/08/07 04:01:17;;;;;;;1.60;0.95;;;9.60;12.90;;;;;;5086828;28;34061;-77
2022/08/07 04:03:43;;;;;;;0.80;0.80;;;9.60;13.00;;;;;;5087285;28;34147;-77
2022/08/07 04:06:10;;;;;;;1.38;0.90;;;9.60;13.20;;;;;;5103772;28;34069;-78
2022/08/07 04:08:39;;;;;;;1.10;1.00;;;9.60;13.30;;;;;;5104766;28;34146;-77
2022/08/07 04:11:07;;;;;;;0.90;0.90;;;9.60;13.40;;;;;;5086418;28;34346;-77
2022/08/07 04:13:34;;;;;;;0.88;0.88;;;9.50;13.30;;;;;;5115425;27;34375;-77
2022/08/07 04:16:00;;;;;;;1.10;1.00;;;9.50;13.30;;;;;;5110853;27;34168;-77
2022/08/07 04:18:26;;;;;;;0.90;0.90;;;9.50;13.30;;;;;;5127429;27;36014;-77
2022/08/07 04:20:52;;;;;;;0.90;0.90;;;9.50;13.40;;;;;;5128313;27;34368;-77
2022/08/07 04:23:19;;;;;;;0.85;0.85;;;9.40;13.30;;;;;;5146124;27;34210;-77
2022/08/07 04:25:47;;;;;;;1.10;0.93;;;9.50;13.40;;;;;;5102645;28;34368;-77
2022/08/07 04:28:13;;;;;;;2.30;0.82;;;9.50;13.50;;;;;;5108593;27;34255;-77
2022/08/07 04:30:39;;;;;;;1.02;1.00;;;9.50;13.30;;;;;;5086628;28;34192;-77
2022/08/07 04:33:08;;;;;;;1.10;0.95;;;9.40;13.50;;;;;;5086679;28;34139;-77
2022/08/07 04:35:36;;;;;;;0.95;0.95;;;9.40;13.60;;;;;;5070248;28;34425;-77
2022/08/07 04:38:08;;;;;;;1.25;0.90;;;9.40;13.50;;;;;;5115776;27;34293;-77
2022/08/07 04:40:37;;;;;;;0.70;0.70;;;9.40;13.80;;;;;;5103021;27;34337;-77
2022/08/07 04:43:04;;;;;;;0.80;0.80;;;9.40;13.60;;;;;;5116966;27;34077;-77
2022/08/07 04:45:46;;;;;;;1.95;0.95;;;9.40;13.60;;;;;;5118697;27;34472;-77
2022/08/07 04:48:43;;;;;;;0.95;0.90;;;9.40;14.60;;;;;;5078383;27;35742;-77
2022/08/07 04:51:27;;;;;;;0.82;0.82;;;9.40;15.40;;;;;;5091273;27;34063;-77
2022/08/07 04:54:07;;;;;;;3.33;1.10;;;9.40;15.60;;;;;;5086151;27;34350;-77
2022/08/07 04:56:56;;;;;;;0.82;0.82;;;9.40;15.80;;;;;;5105285;27;34320;-77
2022/08/07 04:59:38;;;;;;;1.13;0.98;;;9.50;15.30;;;;;;5089449;27;35533;-77
2022/08/07 05:02:09;;;;;;;1.05;0.70;;;9.50;16.20;;;;;;5119997;27;34395;-77
2022/08/07 05:04:58;;;;;;;0.90;0.90;;;9.50;14.50;;;;;;5094867;27;34143;-77
2022/08/07 05:07:34;;;;;;;0.73;0.73;;;9.50;16.30;;;;;;5103769;27;34576;-77
2022/08/07 05:10:06;;;;;;;1.23;0.90;;;9.60;14.90;;;;;;5091397;27;34321;-77
2022/08/07 05:12:46;;;;;;;0.88;0.88;;;9.60;14.40;;;;;;5071444;27;35211;-78
2022/08/07 05:15:21;;;;;;;0.93;0.93;;;9.60;16.00;;;;;;5120886;27;34288;-77
2022/08/07 05:17:50;;;;;;;1.08;0.93;;;9.70;15.50;;;;;;5096165;27;34559;-77
2022/08/07 05:20:23;;;;;;;2.15;0.90;;;9.70;14.20;;;;;;5131534;27;35737;-78
2022/08/07 05:22:55;;;;;;;1.48;1.27;;;9.90;14.40;;;;;;5104555;27;34164;-77
2022/08/07 05:25:23;;;;;;;2.50;1.33;;;10.50;14.00;;;;;;5099102;27;34470;-78
2022/08/07 05:27:51;;;;;;;1.45;1.10;;;11.40;12.60;;;;;;5091112;27;34203;-77
2022/08/07 05:30:18;;;;;;;1.00;1.00;;;12.20;11.50;;;;;;5118881;27;36087;-77
2022/08/07 05:32:46;;;;;;;0.93;0.93;;;12.60;10.50;;;;;;5081934;27;34231;-77
2022/08/07 05:35:14;;;;;;;0.85;0.82;;;12.70;10.30;;;;;;5093706;27;34268;-77
2022/08/07 05:37:41;;;;;;;1.33;1.10;;;12.70;10.30;;;;;;5110074;27;34305;-77
2022/08/07 05:40:09;;;;;;;1.25;1.00;;;12.50;10.50;;;;;;5094191;27;35577;-78
2022/08/07 05:42:36;;;;;;;1.00;1.00;;;12.40;10.90;;;;;;5103506;27;34308;-77
2022/08/07 05:45:04;;;;;;;0.80;0.80;;;12.40;10.90;;;;;;5126813;27;34109;-78
2022/08/07 05:47:31;;;;;;;1.38;1.10;;;12.40;11.50;;;;;;5112759;27;34172;-78
2022/08/07 05:49:58;;;;;;;1.23;1.13;;;12.40;11.50;;;;;;5129733;27;36266;-77
2022/08/07 05:52:24;;;;;;;1.25;1.15;;;12.40;11.70;;;;;;5103455;27;34296;-78
2022/08/07 05:54:52;;;;;;;0.80;0.80;;;12.40;11.80;;;;;;5108445;27;34487;-78
2022/08/07 05:57:20;;;;;;;1.25;1.13;;;12.50;11.90;;;;;;5129860;27;34185;-78
2022/08/07 05:59:52;;;;;;;2.15;1.13;;;12.60;12.20;;;;;;5126711;27;35800;-78
2022/08/07 06:02:19;;;;;;;1.27;1.20;;;12.80;12.60;;;;;;5119458;27;34083;-78
2022/08/07 06:04:52;;;;;;;1.40;1.30;;;13.20;12.00;;;;;;5108549;27;34528;-78
2022/08/07 06:07:19;;;;;;;1.45;1.35;;;13.90;12.20;;;;;;5107599;27;34322;-78
2022/08/07 06:09:45;;;;;;;1.20;1.10;;;14.80;9.90;;;;;;5127530;27;35480;-78
2022/08/07 06:12:13;;;;;;;1.40;1.30;;;15.90;8.50;;;;;;5116964;27;34218;-78
2022/08/07 06:14:39;;;;;;;2.22;1.23;;;17.00;7.20;;;;;;5104404;27;34550;-78
2022/08/07 06:17:07;;;;;;;1.38;1.20;;;18.00;5.70;;;;;;5108659;27;34401;-78
2022/08/07 06:19:33;;;;;;;1.02;1.00;;;18.90;4.70;;;;;;5094715;27;35641;-79
2022/08/07 06:22:00;;;;;;;1.00;1.00;;;19.80;3.40;;;;;;5114611;27;34318;-79
2022/08/07 06:24:28;;;;;;;1.00;0.80;;;20.60;2.40;;;;;;5103198;27;34196;-79
2022/08/07 06:26:54;;;;;;;0.90;0.90;;;21.30;1.80;;;;;;5104632;27;34477;-79
2022/08/07 06:29:26;;;;;;;0.80;0.80;;;22.00;1.10;;;;;;5110596;27;35947;-79
2022/08/07 06:31:52;;;;;;;0.93;0.93;;;22.60;1.00;;;;;;5102108;27;33804;-79
2022/08/07 06:34:24;;;;;;;1.00;1.00;;;23.00;1.00;;;;;;5101996;27;34111;-79
2022/08/07 06:36:50;;;;;;;1.90;1.17;;;23.50;1.00;;;;;;5153208;27;34490;-80
2022/08/07 06:39:16;;;;;;;1.13;1.00;;;24.00;1.00;;;;;;5112533;27;35921;-79
2022/08/07 06:42:04;;;;;;;0.65;0.65;;;24.50;1.00;;;;;;5103324;27;34381;-80
2022/08/07 06:44:31;;;;;;;1.10;0.80;;;25.10;1.00;;;;;;5138293;27;34654;-79
2022/08/07 06:46:58;;;;;;;1.85;0.70;;;25.40;1.00;;;;;;5119396;27;34375;-77
2022/08/07 06:49:24;;;;;;;0.70;0.70;;;25.60;1.00;;;;;;5121058;27;35677;-78
2022/08/07 06:51:53;;;;;;;0.73;0.63;;;25.90;1.00;;;;;;5111678;27;34311;-78
2022/08/07 06:54:21;;;;;;;1.38;0.70;;;26.40;1.00;;;;;;5138861;27;34055;-78
2022/08/07 06:56:49;;;;;;;5.00;0.70;;;26.60;1.00;;;;;;5099813;27;34615;-77
2022/08/07 06:59:26;;;;;;;0.70;0.70;;;26.90;1.00;;;;;;5134495;27;35478;-78
2022/08/07 07:01:53;;;;;;;1.30;0.80;;;27.20;1.00;;;;;;5087999;28;34215;-78
2022/08/07 07:04:19;;;;;;;2.88;0.88;;;27.40;1.00;;;;;;5112433;27;34782;-78
2022/08/07 07:06:46;;;;;;;0.47;0.45;;;27.50;1.00;;;;;;5091970;27;35543;-78
2022/08/07 07:09:17;;;;;;;0.52;0.52;;;27.60;1.00;;;;;;5104900;27;35800;-78
2022/08/07 07:12:03;;;;;;;0.93;0.45;;;27.90;1.00;;;;;;5106558;27;34519;-79
2022/08/07 07:14:38;;;;;;;1.77;0.60;;;28.10;1.00;;;;;;5133652;27;34861;-78
2022/08/07 07:17:12;;;;;;;0.95;0.80;;;28.30;1.00;;;;;;5122002;27;34493;-78
2022/08/07 07:19:46;;;;;;;0.68;0.50;;;28.50;1.00;;;;;;5091461;27;35928;-78
2022/08/07 07:22:16;;;;;;;0.40;0.40;;;28.80;1.00;;;;;;5107747;27;34859;-78
2022/08/07 07:24:44;;;;;;;0.47;0.30;;;29.00;1.00;;;;;;5095074;27;34373;-79
2022/08/07 07:27:14;;;;;;;0.75;0.50;;;29.00;1.00;;;;;;5091204;27;34551;-78
2022/08/07 07:29:46;;;;;;;0.50;0.30;;;29.20;1.00;;;;;;5102318;27;35340;-77
2022/08/07 07:32:17;;;;;;;0.80;0.40;;;29.30;1.00;;;;;;5105660;27;34425;-80
2022/08/07 07:34:48;;;;;;;0.85;0.50;;;29.30;1.00;;;;;;5091139;27;34322;-77
2022/08/07 07:37:15;;;;;;;1.17;0.57;;;29.30;1.00;;;;;;5094778;27;34466;-77
2022/08/07 07:39:42;;;;;;;1.20;0.50;;;29.30;1.00;;;;;;5095447;27;36230;-78
2022/08/07 07:42:10;;;;;;;1.00;0.30;;;29.40;1.00;;;;;;5093779;27;34248;-79
2022/08/07 07:44:40;;;;;;;0.35;0.30;;;29.40;1.00;;;;;;5105196;27;34134;-77
2022/08/07 07:47:08;;;;;;;0.38;0.38;;;29.40;1.00;;;;;;5106578;27;34230;-78
2022/08/07 07:49:36;;;;;;;1.08;0.40;;;29.60;1.00;;;;;;5108837;27;35815;-78
2022/08/07 07:52:03;;;;;;;1.15;0.52;;;29.60;1.00;;;;;;5112606;27;34372;-78
2022/08/07 07:54:30;;;;;;;0.30;0.30;;;29.40;1.00;;;;;;5086627;27;34298;-78
2022/08/07 07:56:58;;;;;;;0.65;0.40;;;29.20;1.00;;;;;;5072439;27;34081;-76
2022/08/07 07:59:26;;;;;;;0.30;0.30;;;29.00;1.00;;;;;;5108978;27;36878;-78
2022/08/07 08:01:55;;;;;;;0.60;0.40;;;28.90;1.00;;;;;;5102026;27;34212;-79
2022/08/07 08:04:25;;;;;;;0.30;0.30;;;29.00;1.00;;;;;;5103258;27;35860;-79
2022/08/07 08:06:52;;;;;;;3.55;0.40;;;29.00;1.00;;;;;;5107003;27;34540;-78
2022/08/07 08:09:20;;;;;;;2.35;0.40;;;28.70;1.00;;;;;;5090513;28;36576;-78
2022/08/07 08:11:47;;;;;;;0.47;0.40;;;28.80;1.00;;;;;;5101762;27;34178;-79
2022/08/07 08:14:16;;;;;;;0.30;0.30;;;29.00;1.00;;;;;;5090463;27;34283;-79
2022/08/07 08:16:44;;;;;;;0.73;0.35;;;29.20;1.00;;;;;;5090665;27;34322;-77
2022/08/07 08:19:14;;;;;;;0.30;0.30;;;29.20;1.00;;;;;;5102574;27;35529;-78
2022/08/07 08:27:14;;;;;;;0.98;0.32;;;29.40;1.00;;;;;;5116651;27;34411;-77
2022/08/07 08:29:56;;;;;;;1.13;0.40;;;29.60;1.00;;;;;;5097939;27;34410;-77
2022/08/07 08:32:26;;;;;;;5.70;0.45;;;29.70;1.00;;;;;;5106971;27;33984;-77
2022/08/07 08:34:55;;;;;;;0.22;0.22;;;29.80;1.00;;;;;;5104749;27;34461;-79
2022/08/07 08:37:24;;;;;;;3.97;0.50;;;29.60;1.00;;;;;;5096451;27;34357;-78
2022/08/07 08:39:52;;;;;;;2.15;0.47;;;29.60;1.00;;;;;;5098846;27;35968;-78
2022/08/07 08:42:27;;;;;;;0.30;0.30;;;29.70;1.00;;;;;;5096674;27;34068;-76
2022/08/07 08:45:17;;;;;;;1.98;0.30;;;29.70;1.00;;;;;;5132496;27;33651;-77
2022/08/07 08:47:59;;;;;;;0.73;0.30;;;29.60;1.00;;;;;;5106813;27;34565;-78
2022/08/07 08:50:39;;;;;;;1.38;0.40;;;29.60;1.00;;;;;;5103898;27;35466;-77
2022/08/07 08:53:31;;;;;;;0.40;0.17;;;29.80;1.00;;;;;;5090744;27;34274;-79
2022/08/07 08:56:05;;;;;;;1.25;0.35;;;29.70;1.00;;;;;;5100958;27;34395;-77
2022/08/07 08:58:42;;;;;;;0.40;0.40;;;29.60;1.00;;;;;;5104305;27;33886;-78
2022/08/07 09:01:36;;;;;;;0.40;0.40;;;29.60;1.00;;;;;;5103795;27;34253;-80
2022/08/07 09:04:21;;;;;;;1.73;0.30;;;29.60;1.00;;;;;;5106752;27;34056;-77
2022/08/07 09:07:07;;;;;;;1.02;0.50;;;29.50;1.00;;;;;;5113724;27;35861;-78
2022/08/07 09:09:58;;;;;;;0.30;0.30;;;29.50;1.00;;;;;;5109062;27;33863;-76
2022/08/07 09:12:45;;;;;;;0.40;0.22;;;29.40;1.00;;;;;;5095071;27;36519;-77
2022/08/07 09:15:45;;;;;;;0.30;0.30;;;29.30;1.00;;;;;;5098890;27;34335;-77
2022/08/07 09:18:37;;;;;;;1.60;0.40;;;29.30;1.00;;;;;;5089088;27;34275;-78
2022/08/07 09:21:34;;;;;;;0.93;0.40;;;29.40;1.00;;;;;;5097569;28;35729;-77
2022/08/07 09:24:31;;;;;;;0.30;0.30;;;29.20;1.00;;;;;;5102702;27;35540;-78
2022/08/07 09:27:21;;;;;;;0.40;0.30;;;29.20;1.00;;;;;;5119012;27;34861;-77
2022/08/07 09:30:06;;;;;;;0.30;0.30;;;29.30;1.00;;;;;;5077220;27;34214;-78
2022/08/07 09:33:03;;;;;;;0.30;0.30;;;29.40;1.00;;;;;;5102406;27;34253;-76
2022/08/07 09:35:43;;;;;;;0.20;0.20;;;29.60;1.00;;;;;;5109393;27;36844;-77
2022/08/07 09:38:18;;;;;;;3.58;0.70;;;29.70;1.00;;;;;;5084225;27;34238;-80
2022/08/07 09:41:04;;;;;;;0.85;0.32;;;29.70;1.00;;;;;;5107988;27;34189;-80
2022/08/07 09:44:02;;;;;;;4.32;0.40;;;29.70;1.00;;;;;;5123291;27;34506;-79
2022/08/07 09:46:59;;;;;;;0.52;0.40;;;29.50;1.00;;;;;;5102192;27;35890;-78
2022/08/07 09:49:48;;;;;;;0.30;0.30;;;29.50;1.00;;;;;;5140583;27;34310;-79
2022/08/07 09:52:35;;;;;;;1.48;0.43;;;29.60;1.00;;;;;;5124139;27;34255;-79
2022/08/07 09:55:20;;;;;;;0.30;0.30;;;29.80;1.00;;;;;;5097166;27;34203;-79
2022/08/07 09:58:06;;;;;;;1.17;0.40;;;29.90;1.00;;;;;;5093570;27;36539;-79
2022/08/07 10:00:55;;;;;;;0.63;0.30;;;29.80;1.00;;;;;;5094283;27;34300;-78
2022/08/07 10:03:46;;;;;;;0.30;0.30;;;29.90;1.00;;;;;;5108568;27;34096;-79
2022/08/07 10:06:30;;;;;;;0.65;0.30;;;30.10;1.00;;;;;;5113421;27;34222;-79
2022/08/07 10:09:25;;;;;;;0.40;0.40;;;30.40;1.00;;;;;;5103418;27;35750;-79
2022/08/07 10:12:13;;;;;;;0.40;0.40;;;30.60;1.00;;;;;;5081371;27;33717;-78
2022/08/07 10:15:06;;;;;;;1.95;0.40;;;30.60;1.00;;;;;;5142648;27;34467;-80
2022/08/07 10:17:49;;;;;;;0.63;0.40;;;30.60;1.00;;;;;;5120990;27;34995;-79
2022/08/07 10:20:26;;;;;;;0.30;0.30;;;30.70;1.00;;;;;;5105308;27;35858;-78
2022/08/07 10:23:28;;;;;;;0.57;0.30;;;30.70;1.00;;;;;;5109918;27;34488;-78
2022/08/07 10:26:15;;;;;;;0.63;0.40;;;30.90;1.00;;;;;;5127748;27;34325;-81
2022/08/07 10:29:10;;;;;;;1.75;0.30;;;31.20;1.00;;;;;;5146567;27;33871;-78
2022/08/07 10:32:05;;;;;;;2.25;0.57;;;31.20;1.00;;;;;;5130586;27;35676;-79
2022/08/07 10:35:06;;;;;;;0.30;0.30;;;31.20;1.00;;;;;;5096546;27;34115;-79
2022/08/07 10:37:54;;;;;;;0.30;0.30;;;31.00;1.00;;;;;;5099992;27;34019;-79
2022/08/07 10:40:41;;;;;;;0.50;0.20;;;31.00;1.00;;;;;;5095772;27;34227;-80
2022/08/07 10:43:29;;;;;;;0.63;0.40;;;31.00;1.00;;;;;;5087584;27;36131;-78
2022/08/07 10:45:59;;;;;;;1.38;0.40;;;31.20;1.00;;;;;;5105351;27;34438;-80
2022/08/07 10:49:00;;;;;;;1.70;0.35;;;31.40;1.00;;;;;;5098656;27;34224;-80
2022/08/07 10:51:37;;;;;;;1.10;0.60;;;31.60;1.00;;;;;;5096936;27;34464;-79
2022/08/07 10:54:17;;;;;;;0.57;0.50;;;31.60;1.00;;;;;;5096148;27;35651;-79
2022/08/07 10:57:03;;;;;;;1.33;0.40;;;31.50;1.00;;;;;;5090750;27;34349;-79
2022/08/07 11:00:07;;;;;;;0.63;0.50;;;31.60;1.00;;;;;;5131158;27;34201;-79
2022/08/07 11:02:43;;;;;;;1.05;0.40;;;31.50;1.00;;;;;;5095193;27;35803;-79
2022/08/07 11:05:30;;;;;;;0.85;0.85;;;31.60;1.00;;;;;;5099635;27;35657;-78
2022/08/07 11:08:10;;;;;;;2.20;0.70;;;31.60;1.00;;;;;;5126628;27;34406;-81
2022/08/07 11:10:51;;;;;;;3.17;0.40;;;31.60;1.00;;;;;;5084505;27;34324;-78
2022/08/07 11:13:35;;;;;;;0.30;0.30;;;31.60;1.00;;;;;;5087309;28;34371;-77
2022/08/07 11:16:08;;;;;;;0.55;0.32;;;31.60;1.00;;;;;;5127605;27;35617;-78
2022/08/07 11:18:41;;;;;;;0.38;0.38;;;31.60;1.00;;;;;;5109335;27;34159;-79
2022/08/07 11:21:18;;;;;;;0.47;0.30;;;31.70;1.00;;;;;;5128753;27;34404;-76
2022/08/07 11:24:02;;;;;;;1.05;0.28;;;32.00;1.00;;;;;;5088188;27;34497;-76
2022/08/07 11:26:52;;;;;;;0.40;0.40;;;32.10;1.00;;;;;;5126421;27;35494;-76
2022/08/07 11:29:39;;;;;;;2.28;0.30;;;31.80;1.00;;;;;;5094493;27;34427;-76
2022/08/07 11:32:14;;;;;;;0.50;0.50;;;31.90;1.00;;;;;;5102972;27;34346;-76
2022/08/07 11:35:02;;;;;;;1.77;0.30;;;31.70;1.00;;;;;;5130058;27;34415;-75
2022/08/07 11:37:53;;;;;;;1.83;0.40;;;31.50;1.00;;;;;;5112839;27;34391;-76
2022/08/07 11:40:32;;;;;;;0.40;0.38;;;31.40;1.00;;;;;;5140740;27;34176;-76
2022/08/07 11:43:25;;;;;;;0.80;0.50;;;31.40;1.00;;;;;;5136233;27;34132;-76
2022/08/07 11:46:08;;;;;;;1.02;0.65;;;31.70;1.00;;;;;;5125953;27;35134;-78
2022/08/07 11:49:05;;;;;;;0.68;0.40;;;31.80;1.00;;;;;;5091477;28;35990;-77
2022/08/07 11:51:57;;;;;;;0.98;0.47;;;31.80;1.00;;;;;;5108573;27;34415;-77
2022/08/07 11:54:49;;;;;;;0.50;0.43;;;31.90;1.00;;;;;;5111797;27;34461;-77
2022/08/07 11:57:22;;;;;;;0.40;0.40;;;31.90;1.00;;;;;;5117188;27;34086;-77
2022/08/07 12:00:06;;;;;;;0.75;0.50;;;31.90;1.00;;;;;;5078697;28;36888;-78
2022/08/07 12:02:56;;;;;;;0.73;0.43;;;31.70;1.00;;;;;;5099657;28;34237;-78
2022/08/07 12:05:42;;;;;;;1.10;0.50;;;31.60;1.00;;;;;;5082761;27;34195;-77
2022/08/07 12:08:30;;;;;;;0.52;0.40;;;31.50;1.00;;;;;;5120790;27;34073;-78
2022/08/07 12:11:05;;;;;;;0.70;0.50;;;31.50;1.00;;;;;;5105528;27;35622;-77
2022/08/07 12:14:02;;;;;;;0.45;0.45;;;31.60;1.00;;;;;;5123275;27;34264;-77
2022/08/07 12:16:33;;;;;;;1.23;0.60;;;31.60;1.00;;;;;;5140260;27;34204;-77
2022/08/07 12:19:20;;;;;;;0.93;0.55;;;31.70;1.00;;;;;;5112302;27;34689;-76
2022/08/07 12:22:11;;;;;;;0.65;0.47;;;31.80;1.00;;;;;;5091993;27;35553;-77
2022/08/07 12:27:54;;;;;;;0.38;0.38;;;31.90;1.00;;;;;;5107201;27;34385;-78
2022/08/07 12:30:27;;;;;;;1.88;0.80;;;32.00;1.00;;;;;;5122272;27;34355;-76
2022/08/07 12:33:00;;;;;;;0.50;0.47;;;32.00;1.00;;;;;;5098728;27;35889;-77
2022/08/07 12:35:29;;;;;;;1.30;0.40;;;32.00;1.00;;;;;;5090570;28;34058;-78
2022/08/07 12:37:58;;;;;;;0.45;0.38;;;32.00;1.00;;;;;;5120359;27;34274;-77
2022/08/07 12:40:26;;;;;;;0.80;0.40;;;32.10;1.00;;;;;;5125792;27;35039;-78
2022/08/07 12:42:56;;;;;;;1.80;0.60;;;32.10;1.00;;;;;;5093481;28;35584;-78
2022/08/07 12:45:28;;;;;;;0.40;0.40;;;32.00;1.00;;;;;;5105469;27;34218;-77
2022/08/07 12:48:06;;;;;;;0.93;0.52;;;31.80;1.00;;;;;;5106336;27;34080;-77
2022/08/07 12:50:44;;;;;;;0.35;0.35;;;31.90;1.00;;;;;;5089019;27;34252;-77
2022/08/07 12:53:34;;;;;;;0.50;0.50;;;32.10;1.00;;;;;;5100920;27;36206;-78
2022/08/07 12:56:09;;;;;;;0.70;0.63;;;32.30;1.00;;;;;;5110832;27;34017;-76
2022/08/07 12:58:39;;;;;;;0.50;0.50;;;32.40;1.00;;;;;;5116007;27;34173;-77
2022/08/07 13:01:27;;;;;;;0.50;0.50;;;32.50;1.00;;;;;;5103143;27;34425;-77
2022/08/07 13:04:15;;;;;;;1.73;0.50;;;32.40;1.00;;;;;;5100113;27;36383;-77
2022/08/07 13:07:11;;;;;;;1.65;1.35;;;32.40;1.00;;;;;;5120128;27;34024;-79
2022/08/07 13:10:12;;;;;;;6.32;2.17;;;32.30;1.00;;;;;;5120875;27;34298;-78
2022/08/07 13:12:53;;;;;;;0.77;0.63;;;32.30;1.00;;;;;;5092191;28;34143;-77
2022/08/07 13:15:42;;;;;;;0.47;0.45;;;32.30;1.00;;;;;;5074579;28;35733;-78
2022/08/07 13:18:30;;;;;;;0.50;0.50;;;32.20;1.00;;;;;;5081244;28;34166;-77
2022/08/07 13:21:06;;;;;;;0.50;0.50;;;32.00;1.00;;;;;;5104088;27;34064;-76
2022/08/07 13:24:03;;;;;;;0.70;0.70;;;32.10;1.00;;;;;;5092649;28;34075;-78
2022/08/07 13:26:40;;;;;;;0.93;0.63;;;32.10;1.00;;;;;;5087720;27;36632;-78
2022/08/07 13:29:20;;;;;;;0.80;0.52;;;32.20;1.00;;;;;;5086449;28;34235;-78
2022/08/07 13:32:03;;;;;;;1.48;1.20;;;32.10;1.00;;;;;;5084569;27;34018;-77
2022/08/07 13:34:41;;;;;;;2.47;1.55;;;32.00;1.00;;;;;;5078786;28;34289;-77
2022/08/07 13:37:17;;;;;;;1.23;0.57;;;32.00;1.00;;;;;;5103560;28;36506;-77
2022/08/07 13:39:53;;;;;;;0.60;0.60;;;31.90;1.00;;;;;;5109716;27;34117;-77